Time;durP1;ratioP1;P1;durP2;ratioP2;P2;SDS_P1;SDS_P2;PMS_P1;PMS_P2;Temp;Humidity;BMP_temperature;BMP_pressure;BME280_temperature;BME280_humidity;BME280_pressure;Samples;Min_cycle;Max_cycle;Signal;HPM_P1;HPM_P2
2022/01/10 00:01:37;;;;;;;5.07;2.22;;;;;;;;;;5048025;28;20131;-68
2022/01/10 00:04:07;;;;;;;5.38;2.08;;;;;;;;;;5049679;28;20048;-69
2022/01/10 00:06:36;;;;;;;3.13;1.83;;;;;;;;;;5050200;28;20400;-68
2022/01/10 00:09:05;;;;;;;3.55;2.17;;;;;;;;;;5049373;28;20080;-68
2022/01/10 00:11:33;;;;;;;4.32;2.22;;;;;;;;;;5049610;28;20059;-68
2022/01/10 00:14:01;;;;;;;2.38;1.90;;;;;;;;;;5047204;28;20132;-68
2022/01/10 00:16:30;;;;;;;4.97;1.83;;;;;;;;;;5048596;28;20049;-68
2022/01/10 00:19:20;;;;;;;3.03;1.80;;;;;;;;;;1306550;28;10022754;-68
2022/01/10 00:21:48;;;;;;;3.58;2.00;;;;;;;;;;4695390;28;10001494;-68
2022/01/10 00:24:16;;;;;;;3.42;2.03;;;;;;;;;;5049851;28;20093;-70
2022/01/10 00:26:45;;;;;;;3.83;2.17;;;;;;;;;;5043186;28;20132;-69
2022/01/10 00:29:13;;;;;;;6.93;2.22;;;;;;;;;;5049798;28;20083;-69
2022/01/10 00:31:42;;;;;;;3.35;2.15;;;;;;;;;;5045523;28;20068;-69
2022/01/10 00:34:10;;;;;;;4.03;2.58;;;;;;;;;;5048803;28;20412;-68
2022/01/10 00:36:40;;;;;;;5.88;2.67;;;;;;;;;;5043914;28;20132;-68
2022/01/10 00:39:09;;;;;;;4.50;2.67;;;;;;;;;;5030598;28;20138;-68
2022/01/10 00:41:37;;;;;;;6.65;2.67;;;;;;;;;;5031201;28;20132;-68
2022/01/10 00:44:05;;;;;;;4.65;2.25;;;;;;;;;;5045239;28;20481;-68
2022/01/10 00:46:34;;;;;;;4.43;2.45;;;;;;;;;;5049388;28;20084;-68
2022/01/10 00:49:02;;;;;;;3.92;2.10;;;;;;;;;;5047819;28;20048;-69
2022/01/10 00:51:30;;;;;;;5.18;2.65;;;;;;;;;;5046526;28;20103;-68
2022/01/10 00:54:00;;;;;;;4.25;2.40;;;;;;;;;;5046648;28;20110;-68
2022/01/10 00:56:28;;;;;;;4.25;2.30;;;;;;;;;;5048897;28;20044;-68
2022/01/10 00:58:56;;;;;;;4.60;2.60;;;;;;;;;;5049101;28;20180;-69
2022/01/10 01:01:25;;;;;;;3.50;2.20;;;;;;;;;;5047262;28;20045;-69
2022/01/10 01:03:53;;;;;;;5.60;2.35;;;;;;;;;;5049941;28;20052;-69
2022/01/10 01:06:21;;;;;;;3.72;2.30;;;;;;;;;;5048500;28;20124;-69
2022/01/10 01:08:50;;;;;;;5.13;2.30;;;;;;;;;;5049965;28;20151;-69
2022/01/10 01:11:46;;;;;;;4.72;2.45;;;;;;;;;;5048870;28;20077;-68
2022/01/10 01:14:24;;;;;;;4.15;2.53;;;;;;;;;;5050920;28;20131;-69
2022/01/10 01:17:09;;;;;;;6.68;2.92;;;;;;;;;;5046515;28;20568;-68
2022/01/10 01:20:06;;;;;;;5.00;2.70;;;;;;;;;;5032658;28;20096;-68
2022/01/10 01:25:21;;;;;;;4.07;2.22;;;;;;;;;;5047710;28;20045;-69
2022/01/10 01:27:53;;;;;;;5.82;3.00;;;;;;;;;;5041448;28;20378;-69
2022/01/10 01:30:21;;;;;;;5.00;2.60;;;;;;;;;;5048489;28;20095;-69
2022/01/10 01:32:50;;;;;;;4.72;2.47;;;;;;;;;;5049467;28;20481;-68
2022/01/10 01:35:23;;;;;;;4.03;2.67;;;;;;;;;;5046344;28;20150;-69
2022/01/10 01:37:52;;;;;;;5.80;2.70;;;;;;;;;;5040974;28;20049;-69
2022/01/10 01:40:21;;;;;;;4.82;2.42;;;;;;;;;;5046630;28;20472;-69
2022/01/10 01:42:51;;;;;;;4.10;2.42;;;;;;;;;;5048194;28;20037;-69
2022/01/10 01:45:19;;;;;;;4.90;2.30;;;;;;;;;;5048040;28;20041;-69
2022/01/10 01:47:47;;;;;;;3.42;2.60;;;;;;;;;;5048047;28;20604;-68
2022/01/10 01:50:16;;;;;;;8.45;2.63;;;;;;;;;;5047192;28;20134;-69
2022/01/10 01:52:44;;;;;;;5.00;2.38;;;;;;;;;;5048658;28;20494;-69
2022/01/10 01:55:13;;;;;;;5.72;2.85;;;;;;;;;;5045778;28;20139;-69
2022/01/10 01:57:41;;;;;;;6.72;2.28;;;;;;;;;;5045691;28;20135;-69
2022/01/10 02:00:11;;;;;;;6.78;2.40;;;;;;;;;;5045357;28;20055;-69
2022/01/10 02:02:39;;;;;;;4.88;2.90;;;;;;;;;;5049385;28;20151;-69
2022/01/10 02:05:08;;;;;;;5.32;2.05;;;;;;;;;;5049174;28;20057;-69
2022/01/10 02:07:36;;;;;;;4.05;2.42;;;;;;;;;;5045790;28;20055;-69
2022/01/10 02:10:05;;;;;;;3.85;2.25;;;;;;;;;;5046263;28;20379;-69
2022/01/10 02:12:33;;;;;;;6.40;2.67;;;;;;;;;;5037275;28;20164;-69
2022/01/10 02:15:01;;;;;;;5.00;2.53;;;;;;;;;;5045261;28;20178;-72
2022/01/10 02:17:36;;;;;;;5.03;2.63;;;;;;;;;;5047998;28;20115;-68
2022/01/10 02:20:07;;;;;;;4.95;2.42;;;;;;;;;;5032344;28;20048;-69
2022/01/10 02:22:35;;;;;;;4.63;2.53;;;;;;;;;;5041385;28;20128;-68
2022/01/10 02:25:04;;;;;;;4.30;2.28;;;;;;;;;;5046929;28;20099;-69
2022/01/10 02:27:32;;;;;;;5.75;3.05;;;;;;;;;;5045793;28;20053;-68
2022/01/10 02:30:00;;;;;;;4.30;2.40;;;;;;;;;;5044691;28;20132;-68
2022/01/10 02:32:29;;;;;;;3.53;1.98;;;;;;;;;;5046467;28;20128;-69
2022/01/10 02:34:57;;;;;;;3.97;2.30;;;;;;;;;;5047189;28;20140;-68
2022/01/10 02:37:33;;;;;;;4.10;2.63;;;;;;;;;;5047533;28;20139;-69
2022/01/10 02:40:06;;;;;;;5.22;2.42;;;;;;;;;;5045379;28;20057;-69
2022/01/10 02:42:34;;;;;;;7.28;3.03;;;;;;;;;;5045428;28;20140;-69
2022/01/10 02:45:03;;;;;;;4.07;2.20;;;;;;;;;;5045971;28;20507;-69
2022/01/10 02:47:31;;;;;;;2.95;2.08;;;;;;;;;;5047637;28;20179;-69
2022/01/10 02:50:00;;;;;;;3.55;2.50;;;;;;;;;;5045863;28;20053;-69
2022/01/10 02:52:28;;;;;;;8.00;2.67;;;;;;;;;;5046809;28;20472;-69
2022/01/10 02:55:00;;;;;;;3.97;2.30;;;;;;;;;;5046553;28;20088;-69
2022/01/10 02:57:28;;;;;;;4.55;2.42;;;;;;;;;;5043165;28;20128;-69
2022/01/10 02:59:57;;;;;;;4.05;2.20;;;;;;;;;;5045350;28;20089;-69
2022/01/10 03:02:30;;;;;;;3.80;2.38;;;;;;;;;;5048283;28;20069;-69
2022/01/10 03:04:58;;;;;;;4.18;2.28;;;;;;;;;;5048278;28;20501;-69
2022/01/10 03:07:27;;;;;;;4.70;2.47;;;;;;;;;;5048203;28;20137;-69
2022/01/10 03:09:57;;;;;;;4.38;2.42;;;;;;;;;;5053075;28;20045;-69
2022/01/10 03:12:28;;;;;;;6.22;2.60;;;;;;;;;;5049221;28;20072;-70
2022/01/10 03:14:56;;;;;;;5.43;2.38;;;;;;;;;;5042793;28;20500;-71
2022/01/10 03:17:24;;;;;;;8.95;2.60;;;;;;;;;;5046298;28;20052;-69
2022/01/10 03:19:53;;;;;;;3.88;2.55;;;;;;;;;;5039093;28;20053;-69
2022/01/10 03:22:21;;;;;;;3.72;2.22;;;;;;;;;;5031174;28;20136;-68
2022/01/10 03:24:49;;;;;;;5.95;2.55;;;;;;;;;;5045585;28;20921;-69
2022/01/10 03:27:32;;;;;;;5.25;2.73;;;;;;;;;;3479672;28;10021653;-69
2022/01/10 03:30:00;;;;;;;;;;;;;;;;;;2609258;28;10002097;-70
2022/01/10 03:32:28;;;;;;;3.85;2.47;;;;;;;;;;5046024;28;20015;-69
2022/01/10 03:34:57;;;;;;;7.35;2.97;;;;;;;;;;5044615;28;20140;-69
2022/01/10 03:37:26;;;;;;;4.90;3.17;;;;;;;;;;5046599;28;20041;-69
2022/01/10 03:39:54;;;;;;;4.45;2.97;;;;;;;;;;5048213;28;20086;-69
2022/01/10 03:42:22;;;;;;;5.45;2.70;;;;;;;;;;5046043;28;20088;-69
2022/01/10 03:44:52;;;;;;;7.28;3.17;;;;;;;;;;5047798;28;20144;-69
2022/01/10 03:47:21;;;;;;;6.68;3.05;;;;;;;;;;5051088;28;20092;-72
2022/01/10 03:49:49;;;;;;;5.65;2.92;;;;;;;;;;5044663;28;21731;-69
2022/01/10 03:52:18;;;;;;;10.70;2.90;;;;;;;;;;5044911;28;20179;-69
2022/01/10 03:54:46;;;;;;;4.63;2.70;;;;;;;;;;5051867;28;20858;-69
2022/01/10 03:57:14;;;;;;;5.60;2.97;;;;;;;;;;5050079;28;20041;-69
2022/01/10 03:59:43;;;;;;;7.97;3.38;;;;;;;;;;5049815;28;20151;-70
2022/01/10 04:02:12;;;;;;;6.15;2.72;;;;;;;;;;5047658;28;20132;-68
2022/01/10 04:04:41;;;;;;;3.97;2.63;;;;;;;;;;5049571;28;20049;-69
2022/01/10 04:07:11;;;;;;;7.90;3.25;;;;;;;;;;5050264;28;20060;-68
2022/01/10 04:09:40;;;;;;;6.97;3.22;;;;;;;;;;5051639;28;20081;-69
2022/01/10 04:12:08;;;;;;;4.70;2.88;;;;;;;;;;5048738;28;20575;-68
2022/01/10 04:14:37;;;;;;;5.22;3.20;;;;;;;;;;5047435;28;20079;-69
2022/01/10 04:17:05;;;;;;;4.63;3.00;;;;;;;;;;5048253;28;20145;-69
2022/01/10 04:19:35;;;;;;;8.10;3.20;;;;;;;;;;5046322;28;20064;-69
2022/01/10 04:22:04;;;;;;;6.80;3.65;;;;;;;;;;5038360;28;20163;-72
2022/01/10 04:24:32;;;;;;;8.23;3.67;;;;;;;;;;5049279;28;20127;-72
2022/01/10 04:27:00;;;;;;;8.48;3.38;;;;;;;;;;5047013;28;20132;-69
2022/01/10 04:29:29;;;;;;;8.13;3.65;;;;;;;;;;5045805;28;20169;-69
2022/01/10 04:31:59;;;;;;;4.63;3.10;;;;;;;;;;5038512;28;20144;-69
2022/01/10 04:34:27;;;;;;;8.30;3.70;;;;;;;;;;5050970;28;20048;-69
2022/01/10 04:36:57;;;;;;;7.75;3.38;;;;;;;;;;5046893;28;20124;-68
2022/01/10 04:39:25;;;;;;;5.10;2.92;;;;;;;;;;5051192;28;20171;-70
2022/01/10 04:41:53;;;;;;;7.75;3.65;;;;;;;;;;5045508;28;20135;-69
2022/01/10 04:44:21;;;;;;;8.07;3.55;;;;;;;;;;5039794;28;20136;-69
2022/01/10 04:46:51;;;;;;;6.18;3.42;;;;;;;;;;5043653;28;20145;-70
2022/01/10 04:49:21;;;;;;;9.27;3.50;;;;;;;;;;5040215;28;20051;-69
2022/01/10 04:51:50;;;;;;;9.18;3.67;;;;;;;;;;5048703;28;20084;-69
2022/01/10 04:54:20;;;;;;;5.80;3.35;;;;;;;;;;5051532;28;20072;-69
2022/01/10 04:56:48;;;;;;;8.70;3.72;;;;;;;;;;5055618;28;20204;-69
2022/01/10 04:59:16;;;;;;;8.05;3.97;;;;;;;;;;5042647;28;20056;-68
2022/01/10 05:01:45;;;;;;;7.20;3.72;;;;;;;;;;5049731;28;20051;-70
2022/01/10 05:04:29;;;;;;;7.14;3.56;;;;;;;;;;2896985;28;10003464;-69
2022/01/10 05:06:57;;;;;;;8.38;3.60;;;;;;;;;;3307393;28;10001271;-69
2022/01/10 05:09:26;;;;;;;7.90;3.83;;;;;;;;;;5049319;28;20069;-68
2022/01/10 05:11:55;;;;;;;9.75;3.88;;;;;;;;;;5050917;28;20036;-68
2022/01/10 05:14:23;;;;;;;9.00;3.97;;;;;;;;;;5057248;28;20504;-69
2022/01/10 05:16:52;;;;;;;6.95;3.33;;;;;;;;;;5040897;28;20053;-70
2022/01/10 05:19:20;;;;;;;7.20;3.95;;;;;;;;;;5030357;28;20148;-69
2022/01/10 05:21:48;;;;;;;7.68;3.95;;;;;;;;;;5044724;28;20132;-69
2022/01/10 05:24:17;;;;;;;10.02;4.25;;;;;;;;;;5041258;28;20076;-69
2022/01/10 05:26:46;;;;;;;11.05;4.03;;;;;;;;;;5043610;28;20041;-69
2022/01/10 05:29:15;;;;;;;9.00;4.00;;;;;;;;;;5041828;28;20136;-69
2022/01/10 05:31:44;;;;;;;10.68;4.85;;;;;;;;;;5048475;28;20132;-72
2022/01/10 05:34:12;;;;;;;11.32;5.00;;;;;;;;;;5049389;28;20488;-69
2022/01/10 05:36:41;;;;;;;9.85;3.80;;;;;;;;;;5039316;28;20473;-69
2022/01/10 05:39:09;;;;;;;6.72;4.03;;;;;;;;;;5052715;28;20080;-68
2022/01/10 05:41:38;;;;;;;12.73;4.57;;;;;;;;;;5045502;28;20045;-69
2022/01/10 05:44:07;;;;;;;12.77;5.43;;;;;;;;;;5039892;28;20143;-69
2022/01/10 05:46:38;;;;;;;11.70;4.72;;;;;;;;;;5047211;28;20043;-69
2022/01/10 05:49:07;;;;;;;9.18;4.65;;;;;;;;;;5049169;28;20049;-69
2022/01/10 05:51:36;;;;;;;8.85;4.20;;;;;;;;;;5044874;28;20049;-72
2022/01/10 05:54:05;;;;;;;8.43;4.20;;;;;;;;;;5036846;28;20140;-69
2022/01/10 05:56:33;;;;;;;10.68;4.95;;;;;;;;;;5043930;28;20634;-70
2022/01/10 05:59:02;;;;;;;12.30;4.80;;;;;;;;;;5038736;28;20147;-69
2022/01/10 06:01:32;;;;;;;7.68;4.22;;;;;;;;;;4933682;28;21630;-69
2022/01/10 06:04:00;;;;;;;12.82;5.18;;;;;;;;;;346174;28;10022790;-69
2022/01/10 06:06:29;;;;;;;14.15;5.55;;;;;;;;;;5046021;28;20102;-72
2022/01/10 06:08:57;;;;;;;9.52;5.28;;;;;;;;;;5038164;28;20112;-72
2022/01/10 06:11:26;;;;;;;13.30;4.68;;;;;;;;;;5044391;28;20562;-69
2022/01/10 06:13:54;;;;;;;11.10;4.75;;;;;;;;;;5040510;28;20053;-70
2022/01/10 06:16:23;;;;;;;8.80;4.63;;;;;;;;;;5043739;28;20487;-72
2022/01/10 06:18:53;;;;;;;10.18;5.07;;;;;;;;;;5045666;28;20479;-69
2022/01/10 06:21:25;;;;;;;12.80;5.13;;;;;;;;;;5043597;28;20049;-70
2022/01/10 06:23:54;;;;;;;10.93;5.47;;;;;;;;;;5043034;28;20522;-72
2022/01/10 06:26:22;;;;;;;11.20;5.18;;;;;;;;;;5045945;28;20530;-70
2022/01/10 06:28:50;;;;;;;12.02;5.30;;;;;;;;;;5043685;28;20517;-69
2022/01/10 06:31:19;;;;;;;12.15;5.15;;;;;;;;;;5044532;28;20052;-69
2022/01/10 06:33:47;;;;;;;9.68;5.35;;;;;;;;;;5046420;28;20480;-69
2022/01/10 06:36:17;;;;;;;12.50;5.60;;;;;;;;;;5043629;28;20120;-69
2022/01/10 06:38:45;;;;;;;12.63;6.22;;;;;;;;;;5043274;28;20488;-70
2022/01/10 06:41:13;;;;;;;12.40;5.97;;;;;;;;;;5032722;28;20541;-72
2022/01/10 06:43:41;;;;;;;9.85;5.32;;;;;;;;;;5039881;28;20128;-70
2022/01/10 06:46:10;;;;;;;9.93;5.28;;;;;;;;;;5036171;28;20081;-69
2022/01/10 06:48:39;;;;;;;13.23;5.43;;;;;;;;;;5044929;28;20045;-69
2022/01/10 06:51:07;;;;;;;13.50;5.88;;;;;;;;;;5041661;28;20127;-69
2022/01/10 06:53:37;;;;;;;13.05;5.45;;;;;;;;;;5046211;28;20128;-69
2022/01/10 06:56:08;;;;;;;10.90;5.60;;;;;;;;;;5046287;28;20693;-69
2022/01/10 06:58:37;;;;;;;9.32;4.32;;;;;;;;;;5045661;28;20087;-69
2022/01/10 07:01:08;;;;;;;11.40;5.78;;;;;;;;;;5023163;28;20084;-69
2022/01/10 07:03:37;;;;;;;11.48;5.18;;;;;;;;;;315075;28;10023455;-69
2022/01/10 07:06:08;;;;;;;11.02;5.15;;;;;;;;;;5044004;28;20201;-71
2022/01/10 07:08:52;;;;;;;10.63;5.10;;;;;;;;;;3535121;28;10021578;-70
2022/01/10 07:11:20;;;;;;;;;;;;;;;;;;2595720;28;10002077;-73
2022/01/10 07:13:49;;;;;;;11.60;5.85;;;;;;;;;;5038061;28;19956;-69
2022/01/10 07:16:18;;;;;;;15.57;5.60;;;;;;;;;;5044792;28;20374;-69
2022/01/10 07:18:46;;;;;;;10.63;5.10;;;;;;;;;;5039449;28;20057;-69
2022/01/10 07:21:14;;;;;;;12.63;6.10;;;;;;;;;;5039361;28;20045;-70
2022/01/10 07:23:43;;;;;;;13.60;5.50;;;;;;;;;;5047041;28;20061;-70
2022/01/10 07:26:13;;;;;;;14.65;5.35;;;;;;;;;;5044879;28;20142;-70
2022/01/10 07:28:41;;;;;;;11.00;5.95;;;;;;;;;;5043030;28;20049;-70
2022/01/10 07:31:10;;;;;;;12.98;5.85;;;;;;;;;;5047799;28;20094;-69
2022/01/10 07:33:38;;;;;;;11.18;5.72;;;;;;;;;;5050112;28;20138;-69
2022/01/10 07:36:07;;;;;;;11.68;5.90;;;;;;;;;;5045084;28;20169;-68
2022/01/10 07:38:36;;;;;;;13.43;6.22;;;;;;;;;;5049341;28;20053;-70
2022/01/10 07:41:08;;;;;;;12.20;6.28;;;;;;;;;;5044198;28;20091;-70
2022/01/10 07:43:38;;;;;;;11.77;5.55;;;;;;;;;;5046315;28;20583;-70
2022/01/10 07:46:07;;;;;;;12.57;5.68;;;;;;;;;;5044887;28;20053;-69
2022/01/10 07:48:38;;;;;;;12.90;5.85;;;;;;;;;;5037773;28;20103;-68
2022/01/10 07:51:08;;;;;;;12.57;6.25;;;;;;;;;;5044801;28;20119;-69
2022/01/10 07:53:37;;;;;;;11.23;6.15;;;;;;;;;;5040248;28;20053;-71
2022/01/10 07:56:09;;;;;;;15.20;6.35;;;;;;;;;;5047379;28;20061;-69
2022/01/10 07:58:39;;;;;;;14.45;5.88;;;;;;;;;;5044599;28;20608;-69
2022/01/10 08:01:12;;;;;;;14.80;6.13;;;;;;;;;;5044842;28;20048;-69
2022/01/10 08:03:42;;;;;;;13.80;7.07;;;;;;;;;;5034576;28;20059;-69
2022/01/10 08:06:11;;;;;;;17.63;6.20;;;;;;;;;;5044633;28;20520;-72
2022/01/10 08:08:40;;;;;;;12.68;5.80;;;;;;;;;;5041504;28;20535;-70
2022/01/10 08:11:08;;;;;;;17.75;6.88;;;;;;;;;;5039932;28;20316;-69
2022/01/10 08:13:40;;;;;;;13.73;6.20;;;;;;;;;;5030759;28;20049;-69
2022/01/10 08:16:09;;;;;;;15.40;6.03;;;;;;;;;;5040893;28;20096;-70
2022/01/10 08:18:37;;;;;;;17.27;6.38;;;;;;;;;;5036335;28;20102;-71
2022/01/10 08:21:09;;;;;;;21.08;6.95;;;;;;;;;;5039219;28;20068;-70
2022/01/10 08:23:38;;;;;;;13.73;6.47;;;;;;;;;;5046428;28;20525;-71
2022/01/10 08:26:08;;;;;;;14.95;6.60;;;;;;;;;;5046979;28;20041;-68
2022/01/10 08:28:41;;;;;;;18.40;7.15;;;;;;;;;;5049120;28;20064;-68
2022/01/10 08:31:10;;;;;;;13.95;6.55;;;;;;;;;;5049125;28;20048;-69
2022/01/10 08:33:41;;;;;;;19.77;7.53;;;;;;;;;;5049633;28;20451;-68
2022/01/10 08:36:10;;;;;;;17.15;7.28;;;;;;;;;;5049670;28;20045;-69
2022/01/10 08:38:39;;;;;;;18.50;6.30;;;;;;;;;;5049409;28;20060;-69
2022/01/10 08:41:08;;;;;;;19.95;8.63;;;;;;;;;;5049722;28;20138;-69
2022/01/10 08:43:37;;;;;;;18.60;7.03;;;;;;;;;;5040664;28;20136;-68
2022/01/10 08:46:08;;;;;;;15.13;6.20;;;;;;;;;;5037392;28;20049;-70
2022/01/10 08:48:49;;;;;;;18.58;7.35;;;;;;;;;;5031748;28;20045;-73
2022/01/10 08:51:18;;;;;;;16.83;6.72;;;;;;;;;;5046932;28;20060;-69
2022/01/10 08:53:47;;;;;;;18.23;7.40;;;;;;;;;;5048698;28;20540;-69
2022/01/10 08:56:16;;;;;;;19.30;7.47;;;;;;;;;;5043767;28;20045;-69
2022/01/10 08:58:44;;;;;;;19.20;7.10;;;;;;;;;;5048147;28;20135;-70
2022/01/10 09:01:15;;;;;;;19.65;7.55;;;;;;;;;;5049700;28;20052;-69
2022/01/10 09:03:44;;;;;;;20.35;7.80;;;;;;;;;;5050445;28;20053;-69
2022/01/10 09:06:13;;;;;;;17.23;7.40;;;;;;;;;;5048066;28;20661;-69
2022/01/10 09:08:42;;;;;;;16.05;6.82;;;;;;;;;;5049726;28;20049;-72
2022/01/10 09:11:11;;;;;;;16.45;7.03;;;;;;;;;;5047456;28;20049;-69
2022/01/10 09:13:40;;;;;;;19.77;7.45;;;;;;;;;;5049296;28;20053;-68
2022/01/10 09:16:09;;;;;;;16.00;7.18;;;;;;;;;;5048034;28;20044;-69
2022/01/10 09:18:40;;;;;;;16.98;7.00;;;;;;;;;;5037974;28;20080;-69
2022/01/10 09:21:08;;;;;;;17.38;7.20;;;;;;;;;;5047839;28;20488;-71
2022/01/10 09:23:37;;;;;;;14.80;6.40;;;;;;;;;;5037533;28;20488;-69
2022/01/10 09:26:08;;;;;;;19.48;7.00;;;;;;;;;;5048435;28;20294;-69
2022/01/10 09:28:37;;;;;;;15.77;7.05;;;;;;;;;;5038930;28;20049;-68
2022/01/10 09:31:08;;;;;;;21.95;7.55;;;;;;;;;;5041696;28;20049;-69
2022/01/10 09:33:52;;;;;;;14.41;5.93;;;;;;;;;;4898754;28;10000852;-70
2022/01/10 09:36:21;;;;;;;20.75;6.45;;;;;;;;;;1038870;28;10002063;-69
2022/01/10 09:38:50;;;;;;;18.40;7.07;;;;;;;;;;5048239;28;20335;-68
2022/01/10 09:41:19;;;;;;;15.82;6.80;;;;;;;;;;5044307;28;20044;-69
2022/01/10 09:43:51;;;;;;;17.33;7.28;;;;;;;;;;5046477;28;20045;-73
2022/01/10 09:46:20;;;;;;;17.95;6.85;;;;;;;;;;5049091;28;20056;-73
2022/01/10 09:48:50;;;;;;;15.65;7.30;;;;;;;;;;5045391;28;20048;-68
2022/01/10 09:51:26;;;;;;;21.38;7.57;;;;;;;;;;5048636;28;20105;-69
2022/01/10 09:53:56;;;;;;;18.17;7.68;;;;;;;;;;5049044;28;20052;-71
2022/01/10 09:56:25;;;;;;;23.05;7.63;;;;;;;;;;5046064;28;20048;-69
2022/01/10 09:58:54;;;;;;;19.27;6.82;;;;;;;;;;5047175;28;20106;-69
2022/01/10 10:01:22;;;;;;;16.90;7.05;;;;;;;;;;5044059;28;20437;-69
2022/01/10 10:03:58;;;;;;;15.73;6.35;;;;;;;;;;5049849;28;20412;-69
2022/01/10 10:06:28;;;;;;;16.67;7.75;;;;;;;;;;5048435;28;20057;-71
2022/01/10 10:08:59;;;;;;;20.45;7.68;;;;;;;;;;5039614;28;20067;-69
2022/01/10 10:11:41;;;;;;;17.85;7.63;;;;;;;;;;5042355;28;20582;-69
2022/01/10 10:14:10;;;;;;;21.23;8.20;;;;;;;;;;5044613;28;20045;-69
2022/01/10 10:16:42;;;;;;;17.58;7.53;;;;;;;;;;5048418;28;20153;-69
2022/01/10 10:19:12;;;;;;;17.17;7.10;;;;;;;;;;5048105;28;20040;-69
2022/01/10 10:21:41;;;;;;;18.05;6.95;;;;;;;;;;5043557;28;20056;-69
2022/01/10 10:24:09;;;;;;;19.30;7.28;;;;;;;;;;5047785;28;20059;-69
2022/01/10 10:26:38;;;;;;;15.60;6.55;;;;;;;;;;5049857;28;20135;-70
2022/01/10 10:29:09;;;;;;;15.65;6.47;;;;;;;;;;4617616;28;10000964;-70
2022/01/10 10:31:44;;;;;;;22.25;7.28;;;;;;;;;;1368262;28;10002265;-71
2022/01/10 10:34:20;;;;;;;14.18;6.75;;;;;;;;;;5036314;28;20049;-70
2022/01/10 10:37:00;;;;;;;18.92;7.68;;;;;;;;;;5048524;28;20051;-70
2022/01/10 10:39:29;;;;;;;20.33;7.78;;;;;;;;;;5040273;28;20497;-69
2022/01/10 10:42:00;;;;;;;16.55;6.93;;;;;;;;;;5035711;28;20084;-70
2022/01/10 10:44:29;;;;;;;13.48;6.35;;;;;;;;;;5041496;28;20131;-69
2022/01/10 10:46:59;;;;;;;17.40;7.20;;;;;;;;;;5051436;28;20057;-70
2022/01/10 10:49:32;;;;;;;18.42;7.57;;;;;;;;;;5049094;28;20133;-70
2022/01/10 10:52:02;;;;;;;15.50;7.05;;;;;;;;;;5053332;28;20067;-70
2022/01/10 10:54:32;;;;;;;18.42;7.38;;;;;;;;;;5045165;28;20041;-69
2022/01/10 10:57:02;;;;;;;22.75;8.23;;;;;;;;;;5044170;28;20055;-69
2022/01/10 10:59:32;;;;;;;19.48;7.07;;;;;;;;;;5049831;28;20467;-68
2022/01/10 11:02:02;;;;;;;17.88;7.70;;;;;;;;;;5049475;28;20499;-72
2022/01/10 11:04:37;;;;;;;18.00;6.45;;;;;;;;;;5046572;28;20060;-69
2022/01/10 11:07:07;;;;;;;20.33;8.02;;;;;;;;;;5043102;28;20055;-70
2022/01/10 11:09:56;;;;;;;20.60;7.38;;;;;;;;;;5049768;28;20049;-70
2022/01/10 11:12:25;;;;;;;15.82;7.03;;;;;;;;;;5051829;28;20110;-69
2022/01/10 11:14:56;;;;;;;17.17;6.95;;;;;;;;;;5044341;28;20049;-70
2022/01/10 11:17:24;;;;;;;22.25;7.22;;;;;;;;;;5053847;28;20131;-69
2022/01/10 11:20:10;;;;;;;21.92;7.63;;;;;;;;;;5050956;28;20459;-69
2022/01/10 11:22:40;;;;;;;16.13;7.00;;;;;;;;;;5036745;28;20423;-69
2022/01/10 11:25:20;;;;;;;17.05;7.65;;;;;;;;;;5019185;28;20574;-69
2022/01/10 11:27:50;;;;;;;22.98;7.55;;;;;;;;;;334426;28;10022582;-69
2022/01/10 11:30:28;;;;;;;13.93;6.60;;;;;;;;;;5042352;28;20492;-69
2022/01/10 11:33:01;;;;;;;18.63;7.13;;;;;;;;;;5028713;28;20813;-71
2022/01/10 11:35:51;;;;;;;15.85;7.57;;;;;;;;;;5049365;28;20049;-71
2022/01/10 11:38:29;;;;;;;20.70;7.70;;;;;;;;;;5041262;28;20045;-71
2022/01/10 11:40:59;;;;;;;21.83;8.00;;;;;;;;;;5041033;28;20084;-69
2022/01/10 11:43:36;;;;;;;15.70;7.50;;;;;;;;;;5047665;28;20489;-69
2022/01/10 11:46:21;;;;;;;15.93;7.13;;;;;;;;;;5037008;28;20041;-69
2022/01/10 11:48:51;;;;;;;16.38;7.32;;;;;;;;;;5046997;28;20047;-70
2022/01/10 11:51:23;;;;;;;15.05;7.15;;;;;;;;;;5048691;28;20542;-69
2022/01/10 11:53:52;;;;;;;14.45;6.50;;;;;;;;;;5042996;28;20131;-69
2022/01/10 11:56:26;;;;;;;15.65;6.68;;;;;;;;;;5039137;28;20102;-72
2022/01/10 11:59:15;;;;;;;17.70;6.40;;;;;;;;;;5041081;28;20057;-69
2022/01/10 12:01:45;;;;;;;13.02;4.88;;;;;;;;;;5044693;28;20041;-73
2022/01/10 12:04:14;;;;;;;11.50;5.05;;;;;;;;;;5048280;28;20045;-69
2022/01/10 12:06:45;;;;;;;12.68;6.03;;;;;;;;;;5042325;28;20045;-69
2022/01/10 12:09:13;;;;;;;23.48;7.63;;;;;;;;;;5040310;28;20049;-74
2022/01/10 12:11:45;;;;;;;15.38;6.53;;;;;;;;;;5040977;28;20048;-69
2022/01/10 12:14:14;;;;;;;15.93;6.97;;;;;;;;;;5048328;28;20060;-70
2022/01/10 12:16:43;;;;;;;16.85;7.50;;;;;;;;;;5042922;28;20041;-69
2022/01/10 12:19:12;;;;;;;17.92;7.28;;;;;;;;;;5036559;28;20049;-73
2022/01/10 12:21:41;;;;;;;15.38;7.32;;;;;;;;;;5043069;28;20049;-70
2022/01/10 12:24:12;;;;;;;17.65;6.63;;;;;;;;;;5045827;28;20046;-69
2022/01/10 12:26:41;;;;;;;13.00;6.82;;;;;;;;;;5048301;28;20080;-68
2022/01/10 12:29:10;;;;;;;18.08;7.35;;;;;;;;;;5036407;28;20037;-73
2022/01/10 12:31:40;;;;;;;13.13;6.25;;;;;;;;;;5040558;28;20049;-69
2022/01/10 12:34:09;;;;;;;14.13;6.55;;;;;;;;;;5043888;28;20063;-71
2022/01/10 12:36:39;;;;;;;15.65;6.32;;;;;;;;;;5043515;28;20489;-69
2022/01/10 12:39:12;;;;;;;16.70;6.60;;;;;;;;;;5048896;28;20473;-69
2022/01/10 12:41:43;;;;;;;15.13;7.50;;;;;;;;;;5041726;28;20053;-69
2022/01/10 12:44:11;;;;;;;13.02;6.38;;;;;;;;;;5039694;28;20046;-69
2022/01/10 12:46:40;;;;;;;23.63;8.20;;;;;;;;;;5043523;28;20049;-71
2022/01/10 12:49:10;;;;;;;16.70;7.28;;;;;;;;;;5049349;28;20052;-72
2022/01/10 12:51:40;;;;;;;13.60;6.20;;;;;;;;;;5045905;28;20053;-69
2022/01/10 12:54:12;;;;;;;13.02;6.43;;;;;;;;;;5050509;28;20057;-70
2022/01/10 12:56:43;;;;;;;13.68;6.07;;;;;;;;;;5046587;28;20045;-69
2022/01/10 12:59:12;;;;;;;16.80;6.78;;;;;;;;;;4970386;28;20061;-69
2022/01/10 13:01:41;;;;;;;15.68;6.65;;;;;;;;;;342711;28;10022711;-72
2022/01/10 13:04:10;;;;;;;19.45;6.55;;;;;;;;;;5044531;28;20049;-69
2022/01/10 13:06:42;;;;;;;13.93;5.93;;;;;;;;;;5044959;28;20049;-71
2022/01/10 13:09:11;;;;;;;15.02;6.30;;;;;;;;;;5044202;28;20049;-71
2022/01/10 13:11:47;;;;;;;16.70;6.25;;;;;;;;;;5044511;28;20041;-70
2022/01/10 13:14:16;;;;;;;14.90;6.65;;;;;;;;;;5052368;28;20139;-71
2022/01/10 13:16:45;;;;;;;18.05;6.25;;;;;;;;;;5047225;28;20048;-69
2022/01/10 13:19:15;;;;;;;13.38;5.85;;;;;;;;;;5048851;28;20041;-73
2022/01/10 13:21:48;;;;;;;15.30;6.07;;;;;;;;;;5045254;28;20037;-70
2022/01/10 13:24:18;;;;;;;12.50;6.18;;;;;;;;;;5045299;28;20045;-73
2022/01/10 13:27:01;;;;;;;15.20;5.82;;;;;;;;;;5048203;28;20049;-73
2022/01/10 13:29:34;;;;;;;14.57;6.45;;;;;;;;;;5038962;28;20103;-68
2022/01/10 13:32:16;;;;;;;19.70;6.80;;;;;;;;;;5032954;28;20148;-69
2022/01/10 13:34:45;;;;;;;13.93;5.70;;;;;;;;;;5041740;28;20514;-68
2022/01/10 13:37:13;;;;;;;17.95;6.65;;;;;;;;;;5045004;28;20115;-68
2022/01/10 13:39:42;;;;;;;18.25;7.22;;;;;;;;;;5036305;28;20124;-71
2022/01/10 13:42:12;;;;;;;12.80;6.15;;;;;;;;;;5033215;28;20115;-68
2022/01/10 13:44:55;;;;;;;14.25;6.18;;;;;;;;;;5036722;28;20084;-68
2022/01/10 13:47:23;;;;;;;14.43;6.70;;;;;;;;;;5044978;28;20041;-68
2022/01/10 13:49:52;;;;;;;15.75;6.68;;;;;;;;;;5041510;28;20049;-68
2022/01/10 13:52:20;;;;;;;16.63;6.43;;;;;;;;;;5042248;28;20041;-70
2022/01/10 13:54:49;;;;;;;12.52;6.10;;;;;;;;;;5039464;28;20096;-69
2022/01/10 13:57:21;;;;;;;14.55;6.70;;;;;;;;;;5036734;28;20083;-67
2022/01/10 13:59:50;;;;;;;14.50;6.38;;;;;;;;;;5043929;28;20539;-67
2022/01/10 14:02:18;;;;;;;14.52;6.13;;;;;;;;;;5048463;28;20049;-67
2022/01/10 14:04:47;;;;;;;15.85;5.97;;;;;;;;;;5049709;28;20044;-69
2022/01/10 14:07:16;;;;;;;14.18;6.25;;;;;;;;;;5040045;28;20048;-71
2022/01/10 14:09:46;;;;;;;13.48;6.47;;;;;;;;;;5037546;28;20046;-69
2022/01/10 14:12:20;;;;;;;15.38;6.45;;;;;;;;;;5043526;28;20132;-70
2022/01/10 14:14:54;;;;;;;22.33;7.15;;;;;;;;;;5030583;28;20048;-73
2022/01/10 14:17:23;;;;;;;17.48;6.22;;;;;;;;;;5034936;28;20099;-68
2022/01/10 14:19:51;;;;;;;13.70;6.00;;;;;;;;;;5047989;28;20049;-68
2022/01/10 14:22:20;;;;;;;18.40;6.93;;;;;;;;;;5044757;28;20139;-69
2022/01/10 14:24:49;;;;;;;15.65;6.70;;;;;;;;;;5046311;28;20049;-69
2022/01/10 14:27:18;;;;;;;19.90;7.97;;;;;;;;;;5048026;28;20048;-69
2022/01/10 14:30:01;;;;;;;15.30;6.15;;;;;;;;;;2438861;28;10024125;-69
2022/01/10 14:32:30;;;;;;;14.20;5.85;;;;;;;;;;3628062;28;10001507;-69
2022/01/10 14:34:59;;;;;;;16.95;6.75;;;;;;;;;;5043376;28;20097;-70
2022/01/10 14:37:27;;;;;;;16.70;6.78;;;;;;;;;;5044401;28;20075;-69
2022/01/10 14:39:56;;;;;;;17.02;6.35;;;;;;;;;;5047072;28;20074;-69
2022/01/10 14:42:30;;;;;;;13.90;6.63;;;;;;;;;;5038751;28;20452;-72
2022/01/10 14:44:59;;;;;;;12.80;5.82;;;;;;;;;;5039274;28;20465;-70
2022/01/10 14:47:29;;;;;;;20.15;6.53;;;;;;;;;;5043965;28;20057;-68
2022/01/10 14:49:58;;;;;;;21.88;6.47;;;;;;;;;;5048553;28;20057;-70
2022/01/10 14:52:26;;;;;;;12.70;6.00;;;;;;;;;;5041659;28;20048;-68
2022/01/10 14:54:55;;;;;;;15.75;6.30;;;;;;;;;;5034593;28;20469;-69